Latest Weather Observations for Port Lincoln Airport

IDS60801

Issued at 11:02 am CDT Sunday 1 February 2015 (issued every 30 minutes, with the page automatically refreshed every 10 minutes)

About weather observations | Map of weather stations | Latest weather observations for SA | Other Formats
Station Details ID: 018192 Name: PORT LINCOLN AWS Lat: -34.60 Lon: 135.88 Height: 8.5 m
Data from the previous 72 hours. | See also: Recent months at Port Lincoln Airport
Date/Time
CDT
Temp
°C
App
Temp
°C
Dew
Point
Rel
Hum
%
Delta-T
°C
Wind Press
QNH
hPa
Press
MSL
hPa
Rain
since 9 am
mm
Dir
 
Spd
km/h
Gust
km/h
Spd
kts
Gust
kts
01/11:00am 17.7 12.9 11.7 68 3.3 SSE 28 35 15 19 1021.1 1021.1 0.0
01/10:30am 17.2 12.5 11.9 71 2.9 SSE 28 35 15 19 1021.1 1021.1 0.0
01/10:00am 17.2 12.2 11.0 67 3.3 SSE 28 35 15 19 1020.8 1020.8 0.0
01/09:30am 16.8 12.8 12.9 78 2.2 SSE 26 33 14 18 1020.5 1020.5 0.0
01/09:00am 16.6 11.3 12.4 76 2.3 SSE 32 39 17 21 1020.3 1020.3 0.0
01/08:30am 16.5 11.0 11.9 74 2.5 SSE 32 41 17 22 1019.8 1019.8 0.0
01/08:00am 15.7 10.6 13.0 84 1.5 SSE 32 41 17 22 1019.5 1019.5 0.0
01/07:30am 15.6 12.1 13.4 87 1.2 SSE 24 30 13 16 1019.1 1019.1 0.0
01/07:21am 15.3 10.4 13.7 90 0.9 SSE 32 43 17 23 1019.0 1019.0 0.0
01/07:05am 15.2 10.4 13.9 92 0.7 SSE 32 41 17 22 1018.8 1018.8 0.0
01/07:00am 16.0 12.5 14.4 90 0.9 SSE 26 41 14 22 1018.7 1018.7 0.0
01/06:30am 16.6 11.9 13.3 81 1.8 SSE 30 39 16 21 1018.4 1018.4 0.0
01/06:00am 16.8 11.8 12.1 74 2.6 SSE 30 43 16 23 1018.1 1018.1 0.0
01/05:30am 16.9 11.1 11.6 71 2.9 SE 33 41 18 22 1017.9 1017.9 0.0
01/05:00am 16.7 11.1 12.0 74 2.6 SSE 33 41 18 22 1017.8 1017.8 0.0
01/04:30am 16.5 11.7 12.8 79 2.0 SSE 30 37 16 20 1017.8 1017.8 0.0
01/04:00am 16.6 10.6 12.2 75 2.4 SSE 35 44 19 24 1017.9 1017.9 0.0
01/03:30am 17.2 11.1 11.9 71 2.9 SE 35 41 19 22 1018.1 1018.1 0.0
01/03:00am 17.2 11.3 11.0 67 3.3 SSE 33 44 18 24 1018.1 1018.1 0.0
01/02:30am 17.4 11.9 11.9 70 3.0 SSE 32 39 17 21 1018.2 1018.2 0.0
01/02:00am 17.3 11.5 11.6 69 3.1 SSE 33 41 18 22 1018.3 1018.3 0.0
01/01:30am 17.4 11.8 11.4 68 3.2 SSE 32 37 17 20 1018.6 1018.6 0.0
01/01:00am 17.4 11.8 11.4 68 3.3 SSE 32 37 17 20 1018.8 1018.8 0.0
01/12:30am 17.4 11.5 11.2 67 3.3 SSE 33 44 18 24 1018.9 1018.9 0.0
01/12:00am 17.6 12.1 10.7 64 3.7 SE 30 41 16 22 1018.8 1018.8 0.0
 
Date/Time
CDT
Temp
°C
App
Temp
°C
Dew
Point
Rel
Hum
%
Delta-T
°C
Wind Press
QNH
hPa
Press
MSL
hPa
Rain
since 9 am
mm
Dir
 
Spd
km/h
Gust
km/h
Spd
kts
Gust
kts
31/11:30pm 17.8 12.3 12.0 69 3.2 SSE 32 37 17 20 1018.9 1018.9 0.0
31/11:00pm 17.6 12.1 11.8 69 3.2 SSE 32 41 17 22 1018.8 1018.8 0.0
31/10:30pm 17.3 11.8 12.4 73 2.7 SSE 33 43 18 23 1019.0 1019.0 0.0
31/10:00pm 17.2 12.0 12.7 75 2.5 SSE 32 43 17 23 1018.7 1018.7 0.0
31/09:30pm 17.3 12.0 13.0 76 2.4 SSE 33 41 18 22 1018.3 1018.3 0.0
31/09:00pm 17.5 12.1 12.8 74 2.6 SSE 33 41 18 22 1018.0 1018.0 0.0
31/08:30pm 17.6 12.2 12.9 74 2.6 SSE 33 39 18 21 1017.6 1017.6 0.0
31/08:00pm 17.9 12.1 12.6 71 3.0 SSE 35 41 19 22 1017.4 1017.4 0.0
31/07:30pm 19.3 13.7 13.2 68 3.5 SSE 35 44 19 24 1017.1 1017.1 0.0
31/07:00pm 19.5 13.9 12.0 62 4.2 SSE 33 41 18 22 1017.0 1017.0 0.0
31/06:30pm 21.2 15.6 12.1 56 5.1 SSE 33 44 18 24 1016.7 1016.7 0.0
31/06:00pm 20.8 15.2 11.4 55 5.2 SSE 32 39 17 21 1016.8 1016.8 0.0
31/05:30pm 21.1 15.2 10.6 51 5.7 SSE 32 39 17 21 1017.0 1017.0 0.0
31/05:00pm 21.3 15.6 11.1 52 5.6 SE 32 41 17 22 1016.9 1016.9 0.0
31/04:30pm 21.0 15.3 11.3 54 5.4 SE 32 37 17 20 1017.1 1017.1 0.0
31/04:00pm 20.6 15.3 11.2 55 5.2 SE 30 37 16 20 1017.2 1017.2 0.0
31/03:30pm 20.8 15.2 11.4 55 5.2 SSE 32 37 17 20 1017.2 1017.2 0.0
31/03:00pm 21.5 15.6 10.3 49 6.1 SE 32 37 17 20 1017.2 1017.2 0.0
31/02:30pm 21.9 17.1 11.6 52 5.7 SE 28 35 15 19 1017.3 1017.3 0.0
31/02:00pm 21.1 15.5 8.7 45 6.5 SE 28 35 15 19 1017.4 1017.4 0.0
31/01:30pm 21.4 15.2 9.3 46 6.4 SE 32 39 17 21 1017.4 1017.4 0.0
31/01:00pm 21.6 16.1 9.2 45 6.6 SE 28 35 15 19 1017.5 1017.5 0.0
31/12:30pm 21.5 15.8 9.7 47 6.3 SE 30 39 16 21 1017.5 1017.5 0.0
31/12:00pm 20.7 14.6 9.9 50 5.8 ESE 32 43 17 23 1017.5 1017.5 0.0
31/11:30am 22.0 15.9 10.5 48 6.3 SE 33 43 18 23 1017.6 1017.6 0.0
31/11:00am 20.6 13.9 9.5 49 5.9 ESE 35 44 19 24 1017.5 1017.5 0.0
31/10:30am 19.7 13.5 10.1 54 5.1 ESE 33 43 18 23 1017.6 1017.6 0.0
31/10:00am 20.6 14.6 10.7 53 5.4 SE 33 44 18 24 1017.4 1017.4 0.0
31/09:30am 19.7 12.8 10.4 55 5.0 ESE 37 48 20 26 1017.4 1017.4 0.0
31/09:00am 19.3 12.7 10.0 55 5.0 ESE 35 44 19 24 1017.3 1017.3 0.0
31/08:30am 19.1 12.6 10.4 57 4.7 SE 35 44 19 24 1017.2 1017.2 0.0
31/08:00am 17.8 11.6 9.9 60 4.2 ESE 33 39 18 21 1017.1 1017.1 0.0
31/07:30am 17.5 11.9 10.1 62 3.9 ESE 30 41 16 22 1016.6 1016.6 0.0
31/07:00am 16.9 10.6 9.8 63 3.7 ESE 33 43 18 23 1016.3 1016.3 0.0
31/06:30am 16.7 11.1 10.3 66 3.4 ESE 30 37 16 20 1016.0 1016.0 0.0
31/06:00am 17.0 11.1 10.6 66 3.4 ESE 32 41 17 22 1015.8 1015.8 0.0
31/05:30am 16.9 11.8 10.5 66 3.4 ESE 28 37 15 20 1015.8 1015.8 0.0
31/05:00am 16.7 10.7 10.1 65 3.5 SE 32 44 17 24 1015.7 1015.7 0.0
31/04:30am 16.7 10.6 10.3 66 3.4 SE 33 41 18 22 1015.6 1015.6 0.0
31/04:00am 16.9 11.2 11.0 68 3.2 SE 32 41 17 22 1015.5 1015.5 0.0
31/03:30am 16.8 10.7 10.6 67 3.3 SE 33 46 18 25 1015.6 1015.6 0.0
31/03:00am 16.8 10.9 10.6 67 3.3 SE 32 35 17 19 1015.7 1015.7 0.0
31/02:30am 16.6 11.6 10.9 69 3.0 SE 28 37 15 20 1015.9 1015.9 0.0
31/02:00am 17.0 11.8 11.7 71 2.9 SE 30 39 16 21 1016.0 1016.0 0.0
31/01:30am 17.0 12.2 11.7 71 2.9 SE 28 37 15 20 1016.1 1016.1 0.0
31/01:00am 17.0 11.5 11.7 71 2.9 SE 32 39 17 21 1016.1 1016.1 0.0
31/12:30am 17.0 11.5 11.7 71 2.9 SE 32 41 17 22 1016.3 1016.3 0.0
31/12:00am 17.1 11.6 11.8 71 2.9 SE 32 41 17 22 1016.3 1016.3 0.0
 
Date/Time
CDT
Temp
°C
App
Temp
°C
Dew
Point
Rel
Hum
%
Delta-T
°C
Wind Press
QNH
hPa
Press
MSL
hPa
Rain
since 9 am
mm
Dir
 
Spd
km/h
Gust
km/h
Spd
kts
Gust
kts
30/11:30pm 17.4 12.4 12.3 72 2.8 SE 30 39 16 21 1016.5 1016.5 0.0
30/11:00pm 17.5 12.4 11.8 69 3.1 SE 30 39 16 21 1016.3 1016.3 0.0
30/10:30pm 17.8 12.9 12.7 72 2.8 SE 30 37 16 20 1016.3 1016.3 0.0
30/10:00pm 18.0 13.7 14.3 79 2.1 SSE 30 37 16 20 1016.2 1016.2 0.0
30/09:30pm 17.9 13.1 14.0 78 2.2 SSE 32 39 17 21 1015.9 1015.9 0.0
30/09:00pm 18.2 13.5 14.3 78 2.2 SSE 32 37 17 20 1016.1 1016.1 0.0
30/08:30pm 18.7 14.7 14.2 75 2.6 SSE 28 35 15 19 1015.9 1015.9 0.0
30/08:00pm 19.7 16.2 14.5 72 3.0 SSE 26 33 14 18 1015.6 1015.6 0.0
30/07:30pm 20.8 16.9 13.3 62 4.3 SE 26 32 14 17 1015.5 1015.5 0.0
30/07:00pm 21.7 18.2 13.3 59 4.8 SSE 24 30 13 16 1015.2 1015.2 0.0
30/06:30pm 22.0 17.3 12.0 53 5.6 SE 28 33 15 18 1015.1 1015.1 0.0
30/06:00pm 22.7 18.3 11.7 49 6.2 SE 26 33 14 18 1015.1 1015.1 0.0
30/05:30pm 23.0 18.5 12.6 52 5.9 SE 28 33 15 18 1015.2 1015.2 0.0
30/05:00pm 23.1 19.1 14.1 57 5.3 SE 28 33 15 18 1015.4 1015.4 0.0
30/04:30pm 22.9 17.8 13.1 54 5.6 SSE 32 39 17 21 1015.4 1015.4 0.0
30/04:00pm 23.2 18.0 13.4 54 5.7 SE 33 41 18 22 1015.3 1015.3 0.0
30/03:30pm 23.6 18.4 13.5 53 5.9 SE 33 43 18 23 1015.4 1015.4 0.0
30/03:00pm 23.2 18.3 14.2 57 5.3 SE 33 43 18 23 1015.6 1015.6 0.0
30/02:30pm 23.4 18.3 13.8 54 5.6 SE 33 41 18 22 1015.7 1015.7 0.0
30/02:00pm 23.3 18.0 14.3 57 5.3 SE 35 41 19 22 1016.1 1016.1 0.0
30/01:30pm 23.7 19.0 14.9 57 5.2 SE 33 43 18 23 1016.4 1016.4 0.0
30/01:00pm 22.3 17.5 14.7 62 4.5 SE 33 41 18 22 1016.5 1016.5 0.0
30/12:30pm 23.5 19.8 15.0 59 5.1 SE 28 37 15 20 1016.9 1016.9 0.0
30/12:00pm 22.6 18.9 15.0 62 4.5 ESE 28 37 15 20 1016.9 1016.9 0.0
30/11:30am 22.8 19.3 15.6 64 4.3 ESE 28 39 15 21 1016.9 1016.9 0.0
30/11:00am 22.6 19.0 15.2 63 4.4 ESE 28 35 15 19 1017.0 1017.0 0.0
30/10:30am 21.7 18.1 15.3 67 3.8 ESE 28 35 15 19 1017.0 1017.0 0.0
30/10:00am 22.0 18.8 15.4 66 3.9 ESE 26 33 14 18 1017.0 1017.0 0.0
30/09:30am 21.4 18.3 15.5 69 3.5 ESE 26 35 14 19 1017.1 1017.1 0.0
30/09:00am 21.4 18.8 15.9 71 3.3 ESE 24 33 13 18 1017.1 1017.1 0.0
30/08:30am 20.8 18.1 15.6 72 3.1 ESE 24 30 13 16 1016.9 1016.9 0.0
30/08:00am 19.7 17.2 15.1 75 2.7 ESE 22 28 12 15 1016.8 1016.8 0.0
30/07:30am 18.4 17.0 15.5 83 1.7 ESE 17 19 9 10 1016.5 1016.5 0.0
30/07:00am 17.1 15.8 14.9 87 1.3 ESE 15 17 8 9 1016.5 1016.5 0.0
30/06:30am 16.7 15.3 14.5 87 1.3 ESE 15 19 8 10 1016.1 1016.1 0.0
30/06:00am 16.8 15.0 14.4 86 1.4 ESE 17 20 9 11 1015.7 1015.7 0.0
30/05:30am 16.4 14.5 14.1 86 1.3 ESE 17 19 9 10 1015.5 1015.5 0.0
30/05:00am 17.0 15.6 14.6 86 1.4 ESE 15 19 8 10 1015.4 1015.4 0.0
30/04:30am 16.9 15.1 14.5 86 1.4 SE 17 20 9 11 1015.5 1015.5 0.0
30/04:00am 17.1 14.9 14.4 84 1.5 ESE 19 24 10 13 1015.5 1015.5 0.0
30/03:30am 16.8 15.3 14.1 84 1.5 SE 15 19 8 10 1015.9 1015.9 0.0
30/03:00am 16.8 14.5 14.1 84 1.5 ESE 19 22 10 12 1016.1 1016.1 0.0
30/02:30am 16.8 14.9 14.1 84 1.5 SE 17 20 9 11 1016.4 1016.4 0.0
30/02:00am 17.0 16.1 13.7 81 1.9 SE 11 15 6 8 1016.7 1016.7 0.0
30/01:30am 17.5 16.2 13.8 79 2.1 ESE 13 20 7 11 1016.7 1016.7 0.0
30/01:00am 17.6 15.2 13.9 79 2.1 ESE 19 30 10 16 1016.5 1016.5 0.0
30/12:30am 17.9 14.1 13.6 76 2.4 ESE 26 37 14 20 1016.1 1016.1 0.0
30/12:00am 18.1 13.2 13.8 76 2.4 SE 32 39 17 21 1016.4 1016.4 0.0
 
Date/Time
CDT
Temp
°C
App
Temp
°C
Dew
Point
Rel
Hum
%
Delta-T
°C
Wind Press
QNH
hPa
Press
MSL
hPa
Rain
since 9 am
mm
Dir
 
Spd
km/h
Gust
km/h
Spd
kts
Gust
kts
29/11:30pm 19.1 14.5 14.6 75 2.6 SE 32 41 17 22 1016.4 1016.4 0.0
29/11:00pm 19.5 15.7 14.7 74 2.8 SE 28 35 15 19 1016.4 1016.4 0.0
29/10:30pm 19.5 16.5 13.7 69 3.3 SE 22 28 12 15 1016.4 1016.4 0.0
29/10:00pm 19.9 16.4 13.4 66 3.7 SE 24 32 13 17 1016.3 1016.3 0.0
29/09:30pm 20.2 15.9 11.9 59 4.6 SE 26 33 14 18 1016.1 1016.1 0.0
29/09:00pm 20.2 16.6 13.2 64 4.0 SE 24 28 13 15 1015.9 1015.9 0.0
29/08:30pm 20.6 17.4 13.1 62 4.3 SE 22 28 12 15 1015.8 1015.8 0.0
29/08:00pm 21.6 16.9 11.9 54 5.4 SE 28 35 15 19 1015.6 1015.6 0.0
29/07:30pm 22.8 16.9 9.2 42 7.3 SE 30 35 16 19 1015.5 1015.5 0.0
29/07:00pm 23.8 17.7 8.2 37 8.3 SE 30 37 16 20 1015.4 1015.4 0.0
29/06:30pm 23.6 17.3 8.8 39 7.9 SE 32 37 17 20 1015.4 1015.4 0.0
29/06:00pm 24.2 18.6 10.1 41 7.7 SE 30 35 16 19 1015.6 1015.6 0.0
29/05:30pm 24.8 18.6 9.5 38 8.3 SE 32 35 17 19 1015.8 1015.8 0.0
29/05:00pm 23.5 18.1 10.9 45 7.0 SE 30 35 16 19 1016.0 1016.0 0.0
29/04:30pm 24.0 19.2 12.9 50 6.4 SE 30 37 16 20 1016.1 1016.1 0.0
29/04:00pm 24.1 19.3 11.8 46 7.0 SE 28 32 15 17 1016.4 1016.4 0.0
29/03:30pm 24.6 20.8 13.5 50 6.5 SE 26 35 14 19 1016.7 1016.7 0.0
29/03:00pm 24.0 19.0 13.5 52 6.1 SE 32 39 17 21 1016.7 1016.7 0.0
29/02:30pm 24.9 21.1 12.5 46 7.1 ESE 24 33 13 18 1017.1 1017.1 0.0
29/02:00pm 23.5 19.5 11.9 48 6.6 SE 24 33 13 18 1017.4 1017.4 0.0
29/01:30pm 24.1 20.3 12.4 48 6.7 ESE 24 32 13 17 1017.6 1017.6 0.0
29/01:00pm 24.1 21.4 13.6 52 6.1 ESE 20 30 11 16 1017.9 1017.9 0.0
29/12:30pm 23.4 20.7 13.6 54 5.7 E 20 28 11 15 1018.0 1018.0 0.0
29/12:00pm 23.1 20.4 13.6 55 5.5 E 20 32 11 17 1018.2 1018.2 0.0
29/11:30am 22.8 19.8 13.8 57 5.2 E 22 28 12 15 1018.4 1018.4 0.0

Other Formats:

Comma delimited format used in spreadsheet applications
http://www.bom.gov.au/fwo/IDS60801/IDS60801.95661.axf

JavaScript Object Notation format (JSON) in row-major order
http://www.bom.gov.au/fwo/IDS60801/IDS60801.95661.json